Time;durP1;ratioP1;P1;durP2;ratioP2;P2;SDS_P1;SDS_P2;PMS_P1;PMS_P2;Temp;Humidity;BMP_temperature;BMP_pressure;BME280_temperature;BME280_humidity;BME280_pressure;Samples;Min_cycle;Max_cycle;Signal;HPM_P1;HPM_P2
2023/01/23 00:00:36;;;;;;;30.60;12.18;;;;;;;0.84;100.00;102509.25;6307116;28;20032;-88
2023/01/23 00:03:38;;;;;;;30.52;11.50;;;;;;;0.85;100.00;102516.06;6307106;28;20147;-88
2023/01/23 00:06:39;;;;;;;28.95;11.23;;;;;;;0.85;100.00;102514.34;6287163;28;20142;-88
2023/01/23 00:09:41;;;;;;;28.33;11.48;;;;;;;0.89;100.00;102520.25;6291608;28;20040;-88
2023/01/23 00:12:44;;;;;;;31.17;11.48;;;;;;;0.86;100.00;102518.56;6308966;28;20044;-88
2023/01/23 00:15:47;;;;;;;32.58;12.55;;;;;;;0.86;100.00;102518.56;6307987;28;20149;-87
2023/01/23 00:18:50;;;;;;;26.70;11.02;;;;;;;0.85;100.00;102516.91;6303197;28;20051;-88
2023/01/23 00:21:52;;;;;;;24.17;10.52;;;;;;;0.87;100.00;102519.44;6305283;28;20111;-87
2023/01/23 00:24:54;;;;;;;27.20;11.23;;;;;;;0.86;100.00;102521.13;6300531;28;20050;-87
2023/01/23 00:27:55;;;;;;;24.90;10.88;;;;;;;0.86;100.00;102520.28;6301639;28;20159;-87
2023/01/23 00:31:14;;;;;;;25.45;11.80;;;;;;;0.90;100.00;102516.88;6306875;28;20096;-87
2023/01/23 00:34:16;;;;;;;26.25;10.98;;;;;;;0.92;100.00;102512.63;6305471;28;20441;-87
2023/01/23 00:37:17;;;;;;;27.55;10.00;;;;;;;0.91;100.00;102518.53;6304735;28;20032;-88
2023/01/23 00:40:19;;;;;;;26.50;11.48;;;;;;;0.91;100.00;102520.25;6304521;28;20036;-87
2023/01/23 00:43:23;;;;;;;26.05;10.63;;;;;;;0.92;100.00;102514.28;6310017;28;20040;-88
2023/01/23 00:46:24;;;;;;;26.33;11.45;;;;;;;0.98;100.00;102516.81;6305414;28;20417;-88
2023/01/23 00:49:26;;;;;;;27.50;10.93;;;;;;;0.92;100.00;102522.81;6313314;28;20036;-88
2023/01/23 00:52:29;;;;;;;30.38;11.18;;;;;;;0.93;100.00;102514.28;6310064;28;20548;-88
2023/01/23 00:55:31;;;;;;;26.27;11.23;;;;;;;0.91;100.00;102510.91;6311455;28;20123;-88
2023/01/23 00:58:35;;;;;;;26.67;11.00;;;;;;;0.90;100.00;102513.47;6310302;28;20047;-89
2023/01/23 01:01:36;;;;;;;25.65;10.73;;;;;;;0.90;100.00;102519.41;6310284;28;20575;-89
2023/01/23 01:04:38;;;;;;;24.77;10.07;;;;;;;0.89;100.00;102516.88;6307814;28;20889;-89
2023/01/23 01:07:40;;;;;;;27.48;12.27;;;;;;;0.88;100.00;102523.69;6302363;28;20078;-89
2023/01/23 01:10:42;;;;;;;27.13;10.88;;;;;;;0.89;100.00;102527.06;6311962;28;20040;-89
2023/01/23 01:13:44;;;;;;;33.05;12.02;;;;;;;0.87;100.00;102532.19;6276819;28;20054;-89
2023/01/23 01:16:47;;;;;;;35.85;10.82;;;;;;;0.90;100.00;102537.25;6301148;28;20036;-89
2023/01/23 01:19:48;;;;;;;40.75;14.65;;;;;;;0.88;100.00;102540.69;6310225;28;20485;-89
2023/01/23 01:22:51;;;;;;;32.58;11.77;;;;;;;0.90;100.00;102538.97;6307994;28;20040;-89
2023/01/23 01:25:57;;;;;;;33.65;11.10;;;;;;;0.87;100.00;102542.38;6312444;28;20726;-90
2023/01/23 01:28:59;;;;;;;34.83;13.75;;;;;;;0.87;100.00;102542.38;6312199;28;20040;-89
2023/01/23 01:32:01;;;;;;;36.95;10.82;;;;;;;0.93;100.00;102549.97;6309193;28;20134;-89
2023/01/23 01:35:04;;;;;;;31.42;11.57;;;;;;;0.95;100.00;102555.09;6310160;28;20040;-90
2023/01/23 01:38:07;;;;;;;32.72;12.85;;;;;;;0.94;100.00;102551.66;6310193;28;20520;-89
2023/01/23 01:41:11;;;;;;;28.52;11.02;;;;;;;0.91;100.00;102548.31;6311254;28;20043;-89
2023/01/23 01:44:23;;;;;;;28.85;10.45;;;;;;;0.93;100.00;102554.25;6307969;28;20098;-89
2023/01/23 01:47:25;;;;;;;25.23;10.65;;;;;;;0.89;100.00;102558.50;6312134;28;20055;-89
2023/01/23 01:50:27;;;;;;;24.00;10.27;;;;;;;0.90;100.00;102564.47;6310680;28;20598;-89
2023/01/23 01:53:30;;;;;;;29.90;11.05;;;;;;;0.91;100.00;102566.16;6302262;28;20112;-89
2023/01/23 01:56:38;;;;;;;28.83;9.82;;;;;;;0.90;100.00;102574.66;6312435;28;20040;-89
2023/01/23 02:00:16;;;;;;;25.58;10.68;;;;;;;0.97;100.00;102569.53;6299145;28;20044;-89
2023/01/23 02:03:19;;;;;;;22.15;9.68;;;;;;;1.02;100.00;102574.59;6201571;28;20408;-89
2023/01/23 02:06:21;;;;;;;27.30;10.50;;;;;;;1.02;100.00;102572.03;6208444;28;20050;-89
2023/01/23 02:09:25;;;;;;;27.25;11.07;;;;;;;0.97;100.00;102578.84;6208610;28;20451;-89
2023/01/23 02:12:27;;;;;;;29.60;10.02;;;;;;;1.00;100.00;102574.59;6193271;28;20120;-89
2023/01/23 02:15:29;;;;;;;26.77;10.05;;;;;;;0.93;100.00;102572.94;6177033;28;20084;-89
2023/01/23 02:18:34;;;;;;;30.30;11.00;;;;;;;0.89;100.00;102578.91;6202532;28;20101;-89
2023/01/23 02:21:38;;;;;;;29.05;11.48;;;;;;;0.91;100.00;102586.53;6208776;28;20046;-89
2023/01/23 02:24:53;;;;;;;33.45;11.73;;;;;;;0.91;100.00;102592.47;6205104;28;20486;-89
2023/01/23 02:27:55;;;;;;;29.95;10.27;;;;;;;0.89;100.00;102591.63;6191299;28;20061;-89
2023/01/23 02:30:57;;;;;;;28.35;11.43;;;;;;;0.90;100.00;102590.81;6199598;28;20623;-89
2023/01/23 02:34:00;;;;;;;35.33;11.27;;;;;;;0.92;100.00;102590.78;6208344;28;20064;-89
2023/01/23 02:37:04;;;;;;;40.28;11.13;;;;;;;0.89;100.00;102599.28;6207133;28;20046;-89
2023/01/23 02:40:06;;;;;;;27.45;10.98;;;;;;;0.90;100.00;102603.56;6274438;28;20162;-89
2023/01/23 02:43:13;;;;;;;33.15;12.23;;;;;;;0.93;100.00;102603.53;6305782;28;20552;-88
2023/01/23 02:46:22;;;;;;;32.60;12.73;;;;;;;0.93;100.00;102600.13;6300248;28;20131;-89
2023/01/23 02:49:25;;;;;;;34.38;11.32;;;;;;;0.95;100.00;102599.28;6301536;28;20093;-89
2023/01/23 02:52:28;;;;;;;33.38;12.02;;;;;;;0.96;100.00;102602.66;6298168;28;20040;-88
2023/01/23 02:55:30;;;;;;;34.97;11.13;;;;;;;0.94;100.00;102605.22;6296547;28;20131;-88
2023/01/23 03:01:54;;;;;;;39.42;12.68;;;;;;;0.93;100.00;102607.78;6295705;28;20426;-88
2023/01/23 03:04:55;;;;;;;39.95;11.75;;;;;;;0.93;100.00;102611.19;6304297;28;20040;-88
2023/01/23 03:07:57;;;;;;;34.65;11.40;;;;;;;0.93;100.00;102607.78;6309223;28;20460;-88
2023/01/23 03:11:00;;;;;;;36.50;11.82;;;;;;;0.94;100.00;102609.47;6304967;28;20161;-87
2023/01/23 03:14:03;;;;;;;51.03;13.90;;;;;;;0.92;100.00;102611.16;6303824;28;20513;-87
2023/01/23 03:17:04;;;;;;;35.00;12.55;;;;;;;0.93;100.00;102613.72;6299588;28;20523;-87
2023/01/23 03:20:10;;;;;;;39.13;11.40;;;;;;;1.00;100.00;102617.94;6297176;28;20410;-88
2023/01/23 03:23:13;;;;;;;32.22;11.73;;;;;;;0.94;100.00;102607.75;6300385;28;20051;-87
2023/01/23 03:26:16;;;;;;;33.15;11.93;;;;;;;0.94;100.00;102606.91;6281877;28;20120;-87
2023/01/23 03:32:45;;;;;;;40.13;11.80;;;;;;;0.93;100.00;102611.19;6283412;28;20040;-88
2023/01/23 03:35:48;;;;;;;35.05;11.18;;;;;;;0.92;100.00;102608.63;6287613;28;20037;-88
2023/01/23 03:42:10;;;;;;;37.47;12.15;;;;;;;0.91;100.00;102607.78;6312123;28;20864;-88
2023/01/23 03:45:12;;;;;;;34.47;11.00;;;;;;;0.93;100.00;102616.28;6299123;28;20209;-88
2023/01/23 03:48:15;;;;;;;41.38;11.68;;;;;;;0.94;100.00;102612.84;6305811;28;20032;-87
2023/01/23 03:51:18;;;;;;;32.72;11.45;;;;;;;0.94;100.00;102615.41;6307536;28;20515;-87
2023/01/23 03:54:20;;;;;;;52.90;12.30;;;;;;;0.94;100.00;102617.13;6288715;28;20054;-87
2023/01/23 03:57:23;;;;;;;38.42;12.60;;;;;;;0.95;100.00;102617.13;6284988;28;20063;-87
2023/01/23 04:00:43;;;;;;;35.10;12.43;;;;;;;0.99;100.00;102617.94;6292376;28;20057;-87
2023/01/23 04:03:46;;;;;;;30.85;11.45;;;;;;;0.99;100.00;102623.88;6301442;28;20067;-88
2023/01/23 04:06:48;;;;;;;33.58;14.40;;;;;;;0.95;100.00;102617.13;6288033;28;20044;-88
2023/01/23 04:09:51;;;;;;;30.83;11.07;;;;;;;0.92;100.00;102612.03;6305739;28;20043;-88
2023/01/23 04:12:53;;;;;;;32.85;12.30;;;;;;;0.90;100.00;102616.28;6280004;28;20040;-88
2023/01/23 04:15:54;;;;;;;34.13;11.45;;;;;;;0.89;100.00;102608.66;6303622;28;20442;-88
2023/01/23 04:18:56;;;;;;;35.40;12.05;;;;;;;0.89;100.00;102614.59;6309097;28;20201;-88
2023/01/23 04:22:00;;;;;;;29.70;12.13;;;;;;;0.88;100.00;102612.91;6300711;28;20053;-87
2023/01/23 04:25:06;;;;;;;30.98;11.77;;;;;;;0.88;100.00;102617.16;6297553;28;20062;-88
2023/01/23 04:28:08;;;;;;;25.42;10.63;;;;;;;0.94;100.00;102617.97;6308754;28;20071;-87
2023/01/23 04:31:10;;;;;;;37.30;11.57;;;;;;;0.91;100.00;102617.97;6303025;28;20049;-88
2023/01/23 04:34:12;;;;;;;34.25;13.73;;;;;;;0.91;100.00;102622.25;6307432;28;20178;-87
2023/01/23 04:37:15;;;;;;;29.67;11.63;;;;;;;0.91;100.00;102625.63;6292375;28;20510;-87
2023/01/23 04:40:18;;;;;;;28.27;12.18;;;;;;;0.91;100.00;102622.25;6298881;28;20036;-87
2023/01/23 04:43:31;;;;;;;35.75;12.13;;;;;;;0.91;100.00;102623.06;6308107;28;20056;-87
2023/01/23 04:46:33;;;;;;;31.63;12.10;;;;;;;0.93;100.00;102620.53;6307632;28;20044;-87
2023/01/23 04:49:42;;;;;;;28.52;11.60;;;;;;;0.92;100.00;102627.34;6301453;28;20048;-88
2023/01/23 04:52:44;;;;;;;30.52;12.93;;;;;;;0.92;100.00;102627.34;6306934;28;20048;-88
2023/01/23 04:55:48;;;;;;;28.33;11.88;;;;;;;0.91;100.00;102612.88;6307540;28;20059;-88
2023/01/23 04:58:52;;;;;;;31.00;11.10;;;;;;;0.92;100.00;102614.59;6291784;28;20562;-88
2023/01/23 05:01:56;;;;;;;32.65;12.05;;;;;;;0.92;100.00;102629.88;6323973;28;20044;-88
2023/01/23 05:04:58;;;;;;;32.35;12.82;;;;;;;0.88;100.00;102623.09;6299557;28;20048;-88
2023/01/23 05:08:00;;;;;;;32.15;12.55;;;;;;;0.86;100.00;102624.81;6309400;28;20051;-88
2023/01/23 05:11:03;;;;;;;28.23;12.23;;;;;;;0.87;100.00;102626.50;6306692;28;21356;-88
2023/01/23 05:14:06;;;;;;;36.13;11.90;;;;;;;0.84;100.00;102613.75;6302767;28;20112;-88
2023/01/23 05:17:09;;;;;;;33.28;13.23;;;;;;;0.83;100.00;102624.81;6308494;28;20082;-88
2023/01/23 05:20:19;;;;;;;36.17;12.55;;;;;;;0.83;100.00;102632.47;6295717;28;20051;-88
2023/01/23 05:23:22;;;;;;;29.92;12.75;;;;;;;0.83;100.00;102632.47;6308878;28;20052;-88
2023/01/23 05:26:26;;;;;;;33.88;13.35;;;;;;;0.84;100.00;102631.59;6299610;28;20048;-90
2023/01/23 05:29:29;;;;;;;34.15;12.23;;;;;;;0.82;100.00;102635.84;6304306;28;20051;-90
2023/01/23 05:32:36;;;;;;;29.98;13.35;;;;;;;0.84;100.00;102642.66;6304652;28;20541;-90
2023/01/23 05:35:43;;;;;;;26.95;11.43;;;;;;;0.81;100.00;102642.66;6304805;28;20051;-90
2023/01/23 05:38:45;;;;;;;28.80;11.52;;;;;;;0.82;100.00;102644.38;6308741;28;20051;-90
2023/01/23 05:41:47;;;;;;;25.38;10.80;;;;;;;0.84;100.00;102647.75;6306286;28;20524;-90
2023/01/23 05:45:16;;;;;;;30.80;12.07;;;;;;;0.82;100.00;102640.94;6305689;28;20950;-90
2023/01/23 05:48:18;;;;;;;34.17;12.50;;;;;;;0.83;100.00;102656.25;6302352;28;20044;-90
2023/01/23 05:51:22;;;;;;;30.20;12.35;;;;;;;0.84;100.00;102652.84;6286247;28;20044;-90
2023/01/23 05:54:25;;;;;;;29.35;12.35;;;;;;;0.83;100.00;102653.72;6307226;28;20120;-90
2023/01/23 05:57:27;;;;;;;24.08;11.30;;;;;;;0.83;100.00;102655.41;6279076;28;20052;-90
2023/01/23 06:00:47;;;;;;;31.88;11.65;;;;;;;0.82;100.00;102664.78;6311168;28;20155;-90
2023/01/23 06:04:15;;;;;;;27.92;11.35;;;;;;;0.90;100.00;102669.00;6305830;28;20155;-89
2023/01/23 06:07:49;;;;;;;29.85;11.75;;;;;;;0.83;100.00;102666.44;6274247;28;20060;-90
2023/01/23 06:10:51;;;;;;;26.88;11.10;;;;;;;0.83;100.00;102670.72;6262151;28;20089;-90
2023/01/23 06:13:53;;;;;;;22.23;10.90;;;;;;;0.82;100.00;102679.19;6263006;28;20139;-89
2023/01/23 06:16:56;;;;;;;26.65;11.10;;;;;;;0.82;100.00;102687.72;6266929;28;20096;-89
2023/01/23 06:19:58;;;;;;;22.73;10.23;;;;;;;0.81;100.00;102691.09;6263611;28;20049;-89
2023/01/23 06:23:00;;;;;;;27.38;10.68;;;;;;;0.80;100.00;102691.97;6270963;28;20063;-90
2023/01/23 06:26:02;;;;;;;26.42;9.85;;;;;;;0.79;100.00;102692.78;6265970;28;20049;-89
2023/01/23 06:29:05;;;;;;;24.77;10.50;;;;;;;0.81;100.00;102703.00;6264707;28;20052;-89
2023/01/23 06:32:08;;;;;;;23.80;10.40;;;;;;;0.82;100.00;102700.47;6273814;28;20080;-89
2023/01/23 06:35:11;;;;;;;23.83;11.25;;;;;;;0.83;100.00;102697.03;6264376;28;20501;-89
2023/01/23 06:38:15;;;;;;;24.20;11.45;;;;;;;0.82;100.00;102699.59;6265491;28;20056;-89
2023/01/23 06:41:20;;;;;;;22.50;11.10;;;;;;;0.81;100.00;102697.91;6258575;28;20182;-89
2023/01/23 06:44:25;;;;;;;22.52;11.57;;;;;;;0.81;100.00;102708.09;6315838;28;20100;-89
2023/01/23 06:47:28;;;;;;;25.60;10.82;;;;;;;0.85;100.00;102709.81;6288188;28;20101;-90
2023/01/23 06:50:33;;;;;;;25.75;10.98;;;;;;;0.83;100.00;102717.44;6303855;28;20387;-89
2023/01/23 06:53:36;;;;;;;29.15;11.40;;;;;;;0.86;100.00;102726.78;6310946;28;20044;-90
2023/01/23 06:56:38;;;;;;;28.85;12.88;;;;;;;0.82;100.00;102727.63;6310578;28;20454;-90
2023/01/23 06:59:42;;;;;;;22.33;11.52;;;;;;;0.81;100.00;102741.25;6293765;28;20055;-89
2023/01/23 07:02:47;;;;;;;30.90;11.18;;;;;;;0.80;100.00;102739.56;6307932;28;20422;-90
2023/01/23 07:05:49;;;;;;;27.02;12.13;;;;;;;0.80;100.00;102739.56;6309096;28;20048;-90
2023/01/23 07:08:51;;;;;;;30.48;11.75;;;;;;;0.80;100.00;102747.19;6310454;28;20604;-90
2023/01/23 07:11:53;;;;;;;32.00;12.32;;;;;;;0.80;100.00;102745.50;6307800;28;20067;-90
2023/01/23 07:14:55;;;;;;;34.63;12.65;;;;;;;0.82;100.00;102753.13;6306433;28;20582;-90
2023/01/23 07:18:11;;;;;;;31.77;12.15;;;;;;;0.83;100.00;102752.28;6289595;28;20051;-90
2023/01/23 07:21:13;;;;;;;32.70;12.63;;;;;;;0.86;100.00;102754.81;6299535;28;20123;-90
2023/01/23 07:24:15;;;;;;;31.55;13.43;;;;;;;0.86;100.00;102759.91;6300936;28;20051;-90
2023/01/23 07:27:17;;;;;;;34.92;13.45;;;;;;;0.87;100.00;102769.28;6287183;28;20047;-91
2023/01/23 07:30:19;;;;;;;29.63;12.88;;;;;;;0.87;100.00;102771.84;6302923;28;20401;-90
2023/01/23 07:33:21;;;;;;;33.45;12.98;;;;;;;0.91;100.00;102775.22;6299404;28;20485;-90
2023/01/23 07:36:23;;;;;;;28.13;11.45;;;;;;;0.92;100.00;102779.44;6311069;28;20331;-90
2023/01/23 07:39:25;;;;;;;30.17;12.52;;;;;;;0.92;100.00;102780.31;6308690;28;20173;-90
2023/01/23 07:42:27;;;;;;;28.63;12.13;;;;;;;0.94;100.00;102781.13;6310588;28;20044;-90
2023/01/23 07:45:29;;;;;;;30.63;12.90;;;;;;;0.93;100.00;102781.16;6309284;28;20465;-91
2023/01/23 07:48:31;;;;;;;29.35;13.77;;;;;;;0.91;100.00;102780.31;6305428;28;20475;-90
2023/01/23 07:51:34;;;;;;;29.67;13.65;;;;;;;0.94;100.00;102793.88;6297130;28;20050;-91
2023/01/23 07:54:35;;;;;;;31.30;13.50;;;;;;;0.94;100.00;102781.13;6299441;28;20773;-91
2023/01/23 07:57:37;;;;;;;32.33;12.48;;;;;;;0.98;100.00;102787.94;6289505;28;20494;-90
2023/01/23 08:00:40;;;;;;;30.88;13.65;;;;;;;1.00;100.00;102788.78;6300065;28;20206;-90
2023/01/23 08:03:42;;;;;;;26.20;12.10;;;;;;;1.04;100.00;102793.03;6293584;28;20142;-90
2023/01/23 08:06:44;;;;;;;27.27;12.30;;;;;;;1.03;100.00;102791.31;6303686;28;20176;-90
2023/01/23 08:09:46;;;;;;;27.95;11.82;;;;;;;1.07;100.00;102802.38;6309327;28;20040;-90
2023/01/23 08:12:48;;;;;;;33.92;12.77;;;;;;;1.08;100.00;102801.53;6301680;28;20055;-91
2023/01/23 08:15:52;;;;;;;32.42;12.05;;;;;;;1.04;100.00;102799.81;6301674;28;20445;-90
2023/01/23 08:18:54;;;;;;;35.10;13.88;;;;;;;1.04;100.00;102802.38;6308203;28;20043;-91
2023/01/23 08:21:56;;;;;;;29.35;12.00;;;;;;;1.05;100.00;102801.53;6308783;28;20540;-90
2023/01/23 08:24:57;;;;;;;29.13;12.27;;;;;;;1.06;100.00;102804.06;6307014;28;20036;-91
2023/01/23 08:28:00;;;;;;;35.05;12.48;;;;;;;1.11;100.00;102803.22;6299478;28;20493;-91
2023/01/23 08:31:04;;;;;;;31.40;12.02;;;;;;;1.16;100.00;102802.34;6302875;28;20047;-91
2023/01/23 08:34:07;;;;;;;28.27;12.30;;;;;;;1.19;100.00;102806.56;6299273;28;20480;-90
2023/01/23 08:37:09;;;;;;;31.67;13.45;;;;;;;1.22;100.00;102806.59;6300930;28;20055;-90
2023/01/23 08:40:11;;;;;;;30.45;12.50;;;;;;;1.24;100.00;102809.97;6309856;28;20126;-90
2023/01/23 08:43:14;;;;;;;33.00;13.25;;;;;;;1.27;100.00;102804.88;6311276;28;20036;-90
2023/01/23 08:46:16;;;;;;;31.60;13.32;;;;;;;1.31;100.00;102811.66;6310630;28;20063;-90
2023/01/23 08:49:19;;;;;;;27.45;11.80;;;;;;;1.33;100.00;102815.03;6309168;28;20040;-90
2023/01/23 08:52:21;;;;;;;33.97;14.85;;;;;;;1.33;100.00;102801.44;6309717;28;20036;-90
2023/01/23 08:55:23;;;;;;;32.63;12.52;;;;;;;1.38;100.00;102813.31;6309845;28;20063;-90
2023/01/23 08:58:25;;;;;;;27.90;12.43;;;;;;;1.42;100.00;102809.91;6307243;28;20051;-90
2023/01/23 09:01:27;;;;;;;26.48;11.85;;;;;;;1.45;100.00;102806.50;6302489;28;20071;-90
2023/01/23 09:04:29;;;;;;;33.28;13.23;;;;;;;1.54;100.00;102813.25;6311013;28;20296;-90
2023/01/23 09:07:31;;;;;;;32.90;13.23;;;;;;;1.60;100.00;102819.19;6314789;28;20040;-90
2023/01/23 09:10:35;;;;;;;30.40;12.80;;;;;;;1.64;100.00;102809.81;6314947;28;20169;-90
2023/01/23 09:13:37;;;;;;;31.30;12.68;;;;;;;1.66;100.00;102824.25;6306015;28;20035;-90
2023/01/23 09:16:40;;;;;;;30.23;13.05;;;;;;;1.70;100.00;102817.44;6313795;28;20312;-90
2023/01/23 09:19:42;;;;;;;30.85;13.48;;;;;;;1.76;100.00;102821.66;6301619;28;20047;-90
2023/01/23 09:22:44;;;;;;;28.80;12.15;;;;;;;1.79;100.00;102819.97;6299045;28;20045;-90
2023/01/23 09:25:46;;;;;;;33.75;13.27;;;;;;;1.83;100.00;102825.88;6306508;28;20044;-90
2023/01/23 09:28:48;;;;;;;30.13;12.70;;;;;;;1.80;100.00;102831.03;6314777;28;20094;-91
2023/01/23 09:31:50;;;;;;;35.20;13.38;;;;;;;1.75;100.00;102835.31;6314863;28;20082;-90
2023/01/23 09:34:53;;;;;;;30.85;13.73;;;;;;;1.69;100.00;102839.59;6303029;28;20107;-91
2023/01/23 09:38:06;;;;;;;29.05;13.25;;;;;;;1.69;100.00;102851.47;6302072;28;20121;-91
2023/01/23 09:41:22;;;;;;;31.95;13.20;;;;;;;1.66;100.00;102857.44;6315377;28;20058;-90
2023/01/23 09:44:39;;;;;;;30.83;13.13;;;;;;;1.64;100.00;102854.06;6309559;28;20051;-90
2023/01/23 09:47:52;;;;;;;33.22;12.82;;;;;;;1.63;100.00;102859.16;6311871;28;20075;-91
2023/01/23 09:51:02;;;;;;;29.25;13.15;;;;;;;1.67;100.00;102865.97;6311030;28;20128;-90
2023/01/23 09:54:17;;;;;;;26.77;11.20;;;;;;;1.64;100.00;102863.41;6314261;28;20048;-91
2023/01/23 09:57:36;;;;;;;21.67;10.32;;;;;;;1.68;100.00;102863.41;6314311;28;20290;-91
2023/01/23 10:00:38;;;;;;;26.77;11.95;;;;;;;1.70;100.00;102863.41;6312774;28;20044;-91
2023/01/23 10:03:40;;;;;;;22.48;10.32;;;;;;;1.72;100.00;102860.00;6312435;28;20532;-91
2023/01/23 10:07:19;;;;;;;28.35;12.10;;;;;;;1.79;100.00;102863.38;6310870;28;20028;-91
2023/01/23 10:10:43;;;;;;;22.90;11.23;;;;;;;1.87;100.00;102859.06;6309803;28;20074;-91
2023/01/23 10:13:51;;;;;;;24.10;11.30;;;;;;;1.91;100.00;102875.22;6312647;28;20051;-92
2023/01/23 10:17:18;;;;;;;24.20;11.38;;;;;;;1.85;100.00;102877.81;6295728;28;20044;-92
2023/01/23 10:20:29;;;;;;;24.38;10.77;;;;;;;1.86;100.00;102871.84;6312935;28;20454;-92
2023/01/23 10:23:51;;;;;;;26.48;11.52;;;;;;;1.89;100.00;102870.13;6310877;28;20047;-92
2023/01/23 10:27:14;;;;;;;28.70;11.60;;;;;;;1.99;100.00;102872.63;6312929;28;20055;-93
2023/01/23 10:30:16;;;;;;;25.83;11.63;;;;;;;2.03;100.00;102858.97;6300767;28;20093;-93
2023/01/23 10:33:18;;;;;;;27.35;11.18;;;;;;;2.04;100.00;102865.81;6313276;28;20093;-94
2023/01/23 10:36:28;;;;;;;23.17;10.75;;;;;;;2.05;100.00;102858.13;6310984;28;20126;-93
2023/01/23 10:40:02;;;;;;;24.20;11.35;;;;;;;2.09;100.00;102862.34;6300571;28;20469;-94
2023/01/23 10:43:17;;;;;;;25.25;11.80;;;;;;;2.10;100.00;102858.09;6312998;28;20043;-94
2023/01/23 10:46:47;;;;;;;29.65;12.90;;;;;;;2.10;100.00;102866.59;6311299;28;20421;-93
2023/01/23 10:49:49;;;;;;;24.42;10.88;;;;;;;2.08;100.00;102867.47;6301905;28;20465;-93
2023/01/23 10:52:51;;;;;;;24.42;11.48;;;;;;;2.10;100.00;102868.31;6312266;28;20043;-94
2023/01/23 10:55:58;;;;;;;24.90;11.20;;;;;;;2.13;100.00;102860.63;6310879;28;20044;-94
2023/01/23 10:59:01;;;;;;;21.15;9.95;;;;;;;2.18;100.00;102869.09;6311899;28;20107;-93
2023/01/23 11:02:12;;;;;;;18.90;10.00;;;;;;;2.22;100.00;102868.25;6297930;28;20040;-93
2023/01/23 11:05:37;;;;;;;21.50;9.63;;;;;;;2.29;100.00;102862.22;6310919;28;20040;-93
2023/01/23 11:09:00;;;;;;;18.65;9.02;;;;;;;2.33;100.00;102856.22;6311610;28;20169;-93
2023/01/23 11:12:04;;;;;;;19.75;9.73;;;;;;;2.37;100.00;102857.91;6310056;28;20040;-93
2023/01/23 11:15:27;;;;;;;17.70;10.20;;;;;;;2.38;100.00;102853.63;6311509;28;20525;-93
2023/01/23 11:18:41;;;;;;;20.15;9.77;;;;;;;2.36;100.00;102850.25;6294239;28;20393;-93
2023/01/23 11:21:54;;;;;;;22.50;10.30;;;;;;;2.35;100.00;102851.13;6310378;28;20039;-93
2023/01/23 11:24:56;;;;;;;17.73;9.20;;;;;;;2.32;100.00;102851.97;6291339;28;20040;-94
2023/01/23 11:28:29;;;;;;;19.55;9.23;;;;;;;2.27;100.00;102848.63;6309885;28;20493;-93
2023/01/23 11:31:31;;;;;;;18.95;9.98;;;;;;;2.31;100.00;102837.53;6310192;28;20048;-94
2023/01/23 11:34:41;;;;;;;23.55;11.10;;;;;;;2.37;100.00;102834.06;6309629;28;20047;-93
2023/01/23 11:37:43;;;;;;;19.67;9.85;;;;;;;2.39;100.00;102832.34;6312105;28;20485;-93
2023/01/23 11:40:46;;;;;;;19.98;10.32;;;;;;;2.39;100.00;102826.41;6310679;28;20040;-93
2023/01/23 11:43:48;;;;;;;19.73;9.90;;;;;;;2.43;100.00;102830.59;6310987;28;20469;-92
2023/01/23 11:47:11;;;;;;;23.67;10.70;;;;;;;2.45;100.00;102834.00;6309122;28;20516;-94
2023/01/23 11:50:13;;;;;;;19.40;9.15;;;;;;;2.40;100.00;102826.38;6308944;28;20991;-93
2023/01/23 11:53:41;;;;;;;22.05;10.93;;;;;;;2.40;100.00;102834.03;6312020;28;20074;-93
2023/01/23 11:57:08;;;;;;;20.42;10.70;;;;;;;2.42;100.00;102831.47;6308523;28;20237;-94
2023/01/23 12:00:43;;;;;;;19.90;10.93;;;;;;;2.45;100.00;102834.00;6289634;28;20047;-93
2023/01/23 12:04:19;;;;;;;25.55;12.13;;;;;;;2.43;100.00;102833.16;6233066;28;20064;-93
2023/01/23 12:07:23;;;;;;;24.30;12.55;;;;;;;2.48;100.00;102833.97;6233189;28;20053;-93
2023/01/23 12:10:28;;;;;;;24.52;12.55;;;;;;;2.47;100.00;102834.84;6232099;28;20053;-94
2023/01/23 12:13:54;;;;;;;23.83;11.38;;;;;;;2.48;100.00;102833.97;6232103;28;20061;-93
2023/01/23 12:17:15;;;;;;;26.85;12.48;;;;;;;2.47;100.00;102828.03;6217418;28;20118;-94
2023/01/23 12:20:38;;;;;;;25.70;12.20;;;;;;;2.45;100.00;102828.88;6231709;28;20081;-94
2023/01/23 12:24:12;;;;;;;21.17;10.60;;;;;;;2.41;100.00;102819.53;6232139;28;20079;-93
2023/01/23 12:27:33;;;;;;;19.00;10.38;;;;;;;2.39;100.00;102816.19;6232932;28;20061;-94
2023/01/23 12:31:32;;;;;;;24.67;11.73;;;;;;;2.35;100.00;102828.09;6224847;28;20225;-93
2023/01/23 12:35:23;;;;;;;26.95;11.55;;;;;;;2.31;100.00;102822.19;6118098;29;20082;-93
2023/01/23 12:38:31;;;;;;;21.85;11.88;;;;;;;2.27;100.00;102824.78;6088079;29;20096;-93
2023/01/23 12:41:45;;;;;;;23.83;11.73;;;;;;;2.26;100.00;102823.06;6128673;28;20169;-93
2023/01/23 12:45:05;;;;;;;28.13;12.73;;;;;;;2.24;100.00;102828.19;6150006;28;20563;-93
2023/01/23 12:48:21;;;;;;;25.08;12.52;;;;;;;2.26;100.00;102828.16;6149157;28;20712;-93
2023/01/23 12:51:44;;;;;;;24.10;11.23;;;;;;;2.23;100.00;102829.03;6155421;28;20492;-93
2023/01/23 12:54:54;;;;;;;23.63;12.52;;;;;;;2.25;100.00;102831.59;6152796;28;20055;-94
2023/01/23 12:57:58;;;;;;;25.30;11.68;;;;;;;2.23;100.00;102836.72;6150664;28;20046;-94
2023/01/23 13:01:15;;;;;;;23.20;10.70;;;;;;;2.25;100.00;102840.09;6156854;28;20050;-94
2023/01/23 13:04:38;;;;;;;24.92;12.65;;;;;;;2.22;100.00;102836.72;6170271;28;20506;-94
2023/01/23 13:07:45;;;;;;;27.15;12.45;;;;;;;2.18;100.00;102835.03;6216454;28;20057;-93
2023/01/23 13:14:22;;;;;;;22.77;10.30;;;;;;;2.08;100.00;102839.38;6254048;28;20536;-94
2023/01/23 13:17:36;;;;;;;21.50;11.55;;;;;;;2.03;100.00;102838.53;6292556;28;20048;-94
2023/01/23 13:27:54;;;;;;;24.08;12.07;;;;;;;2.09;100.00;102838.53;6297351;28;20067;-94
2023/01/23 13:31:03;;;;;;;19.40;10.18;;;;;;;2.13;100.00;102841.03;6305592;28;20048;-93
2023/01/23 13:34:14;;;;;;;18.05;10.10;;;;;;;2.17;100.00;102839.31;6302599;28;20036;-94
2023/01/23 13:37:50;;;;;;;21.90;10.65;;;;;;;2.19;100.00;102844.41;6297227;28;20173;-93
2023/01/23 13:41:07;;;;;;;22.60;10.75;;;;;;;2.20;100.00;102852.06;6297966;28;20521;-93
2023/01/23 13:44:16;;;;;;;19.52;10.52;;;;;;;2.21;100.00;102845.25;6302502;28;20780;-93
2023/01/23 13:51:17;;;;;;;22.20;11.63;;;;;;;2.18;100.00;102842.72;6188905;28;20545;-93
2023/01/23 13:58:24;;;;;;;21.00;10.90;;;;;;;2.24;100.00;102850.34;6066043;29;20067;-94
2023/01/23 14:05:30;;;;;;;17.98;10.82;;;;;;;2.21;100.00;102869.09;5951875;29;20345;-91
2023/01/23 14:08:53;;;;;;;20.52;10.93;;;;;;;2.20;100.00;102866.56;5866047;30;20056;-90
2023/01/23 14:12:09;;;;;;;22.20;11.13;;;;;;;2.19;100.00;102862.28;5841151;30;20506;-91
2023/01/23 14:19:03;;;;;;;26.33;12.85;;;;;;;2.12;100.00;102870.00;5897212;30;20594;-90
2023/01/23 14:22:19;;;;;;;21.35;12.25;;;;;;;2.09;100.00;102871.72;5898481;30;20054;-90
2023/01/23 14:25:36;;;;;;;20.50;12.13;;;;;;;2.06;100.00;102889.59;5915571;29;20093;-90
2023/01/23 14:28:38;;;;;;;19.38;10.73;;;;;;;2.05;100.00;102887.94;5982817;28;20048;-90
2023/01/23 14:31:41;;;;;;;19.02;10.40;;;;;;;2.01;100.00;102881.13;6163566;28;20042;-91
2023/01/23 14:34:43;;;;;;;19.13;10.63;;;;;;;2.00;100.00;102876.88;6226644;28;20070;-90
2023/01/23 14:37:45;;;;;;;19.60;10.45;;;;;;;2.02;100.00;102880.28;6226813;28;20056;-90
2023/01/23 14:40:47;;;;;;;20.08;10.55;;;;;;;2.01;100.00;102884.53;6228779;28;20057;-90
2023/01/23 14:43:53;;;;;;;21.35;11.27;;;;;;;1.99;100.00;102893.03;6258635;28;20087;-90
2023/01/23 14:46:58;;;;;;;19.50;10.40;;;;;;;2.04;100.00;102887.09;6293228;28;20127;-90